Amargosa Valley, Nevada Weather observations

Data are for observation ending at time listed.
 Day   Time    Ave.   Ave.  Ave.  Vector   Max.   Stn.    Total    Solar   Ave.  
  of    of     Air    Rel.  Wind   Wind    Wind   Baro.  Precip.   Rad.    Soil  
Year   Day     Temp.  Hum.  Speed  Dir.    Gust   Pres.                    Temp. 
2014   (PST)    F      %     mph   deg.    mph     mb.     in.     W/m2     F   
------------------------------------------------------------------------------
 206    9:40  100.8     7   18.8   167     26.4   927.3    0.00     823    92.6
 206    9:50  101.0     8   19.2   157     27.1   927.4    0.00     842    92.6
 206   10:00  101.2     8   18.7   155     27.3   927.4    0.00     859    92.6
 206   10:10  101.2     8   18.8   157     27.0   927.3    0.00     878    92.7
 206   10:20  101.8     7   18.3   172     26.7   927.3    0.00     895    92.8
 206   10:30  102.1     7   18.8   165     27.8   927.3    0.00     909    92.8
 206   10:40  102.2     7   17.9   169     26.1   927.3    0.00     923    92.9
 206   10:50  102.7     7   19.5   165     25.9   927.3    0.00     933    92.9
 206   11:00  102.8     8   20.6   173     27.7   927.2    0.00     943    93.0
 206   11:10  103.2     8   19.6   171     27.3   927.2    0.00     949    93.1
 206   11:20  103.5     8   19.8   173     27.5   927.2    0.00     956    93.2
 206   11:30  103.7     8   19.8   171     29.6   927.2    0.00     962    93.3
 206   11:40  103.9     8   20.5   174     30.1   927.1    0.00     959    93.4
 206   11:50  104.0     8   20.3   172     28.6   927.1    0.00     965    93.5
 206   12:00  104.4     7   19.9   185     28.7   927.0    0.00     969    93.5
 206   12:10  103.9     9   20.5   180     29.6   927.0    0.00     964    93.7
 206   12:20  103.9     9   22.5   168     34.0   927.1    0.00     973    93.8
 206   12:30  103.6    10   20.5   174     29.1   926.9    0.00     969    94.0
 206   12:40  104.0     9   22.0   174     28.8   926.8    0.00     966    94.1
 206   12:50  104.5     9   20.2   184     29.4   926.8    0.00     959    94.2
 206   13:00  104.3     9   19.4   176     31.7   926.8    0.00     953    94.4
 206   13:10  105.2     9   18.3   175     28.1   926.7    0.00     957    94.5
 206   13:20  104.9     9   20.7   168     30.7   926.6    0.00     919    94.7
 206   13:30  105.0     9   19.8   174     30.1   926.4    0.00     901    94.9
 206   13:40  104.8    10   20.7   162     30.7   926.4    0.00     902    95.1
 206   13:50  104.5    10   20.4   170     30.8   926.3    0.00     856    95.3
 206   14:00  104.5    10   21.2   176     32.7   926.2    0.00     820    95.5
 206   14:10  104.2    10   20.1   173     30.4   926.1    0.00     682    95.7
 206   14:20  104.3     9   20.2   181     27.5   925.9    0.00     778    95.9
 206   14:30  104.1    10   20.6   170     29.5   925.9    0.00     831    96.1
 206   14:40  104.5     9   20.7   175     28.8   925.8    0.00     797    96.4
 206   14:50  104.0    10   20.0   172     27.7   925.7    0.00     778    96.5
 206   15:00  104.2    11   19.2   170     26.2   925.6    0.00     652    96.8
 206   15:10  103.4    12   21.4   161     28.8   925.6    0.00     740    97.0
 206   15:20  103.0    12   21.2   163     31.4   925.6    0.00     400    97.1
 206   15:30  101.6    13   21.0   166     30.8   925.6    0.00     233    97.3
 206   15:40  100.9    13   19.7   169     29.8   925.4    0.00     220    97.5
 206   15:50  101.0    13   19.5   164     27.1   925.2    0.00     212    97.6
 206   16:00  100.7    14   19.2   160     25.1   925.2    0.00     220    97.7
 206   16:10  101.2    13   18.7   162     27.9   925.0    0.00     187    97.8
 206   16:20  101.0    14   19.0   161     25.7   925.0    0.00     158    97.9
 206   16:30  100.4    14   19.1   162     28.9   924.9    0.00     131    98.0
 206   16:40   99.5    15   20.2   164     27.7   924.9    0.00     145    98.1
 206   16:50   99.3    15   20.4   161     28.9   924.9    0.00     147    98.1
 206   17:00   99.0    15   18.5   165     28.6   924.9    0.00     135    98.2
 206   17:10   98.9    16   19.7   170     27.1   924.9    0.00     129    98.3
 206   17:20   99.1    15   19.0   168     27.3   924.9    0.00     123    98.3
 206   17:30   99.6    15   19.8   169     25.8   924.8    0.00     124    98.4
 206   17:40   99.7    15   19.3   171     26.2   924.9    0.00     109    98.4
 206   17:50   99.7    15   18.1   169     23.5   924.9    0.00     104    98.4
 206   18:00   99.5    15   18.0   168     26.6   924.9    0.00     120    98.4
 206   18:10   99.2    15   16.9   167     23.3   924.9    0.00      73    98.4
 206   18:20   98.9    15   16.9   161     21.9   925.0    0.00      51    98.4
 206   18:30   98.5    15   16.9   164     23.3   925.1    0.00      35    98.4
 206   18:40   98.1    16   16.2   160     23.8   925.2    0.00      23    98.4
 206   18:50   97.8    16   16.3   163     21.2   925.3    0.00      15    98.4
 206   19:00   97.5    16   15.8   157     22.1   925.4    0.00       5    98.4
 206   19:10   97.1    16   14.4   158     20.0   925.5    0.00       5    98.4
 206   19:20   96.7    17   12.6   157     17.1   925.5    0.00       0    98.4
 206   19:30   96.3    17   11.2   158     16.5   925.6    0.00       0    98.4
 206   19:40   96.2    17   12.3   157     16.8   925.7    0.00       0    98.3
 206   19:50   96.0    17   11.7   155     16.1   925.9    0.00       0    98.3
 206   20:00   95.9    17   11.7   157     17.3   926.0    0.00       0    98.3
 206   20:10   95.7    18   10.8   155     16.5   926.2    0.00       0    98.3
 206   20:20   95.6    18   10.8   154     16.4   926.4    0.00       0    98.2
 206   20:30   95.5    18   10.4   156     14.5   926.5    0.00       0    98.2
 206   20:40   95.4    18   10.4   153     14.2   926.5    0.00       0    98.1
 206   20:50   95.2    17    9.4   146     14.3   926.6    0.00       0    98.1
 206   21:00   94.7    17    7.9   143     13.6   926.6    0.00       0    98.0
 206   21:10   94.3    17    8.1   142     13.3   926.6    0.00       0    98.0
 206   21:20   94.2    16   10.6   152     17.5   926.6    0.00       0    98.0
 206   21:30   94.0    16   11.0   154     16.0   926.6    0.00       0    97.9
 206   21:40   93.3    16   11.1   150     15.1   926.6    0.00       0    97.9
 206   21:50   92.6    15   11.0   146     15.3   926.6    0.00       0    97.8
 206   22:00   92.0    14   10.2   142     17.0   926.6    0.00       0    97.8
 206   22:10   91.8    12   10.9   145     15.3   926.6    0.00       0    97.7
 206   22:20   91.5    12   10.1   144     14.5   926.6    0.00       0    97.6
 206   22:30   90.3    11    9.4   139     12.5   926.6    0.00       0    97.6
 206   22:40   89.6    11    9.2   134     12.1   926.6    0.00       0    97.5
 206   22:50   89.1    11    8.3   136     12.1   926.6    0.00       0    97.5
 206   23:00   88.6    12    7.6   142     10.4   926.7    0.00       0    97.4
 206   23:10   88.2    12    7.6   147     10.7   926.8    0.00       0    97.3
 206   23:20   88.5    12    8.1   142     12.7   926.8    0.00       0    97.3
 206   23:30   87.6    12    7.1   137      9.7   926.9    0.00       0    97.2
 206   23:40   87.1    12    7.4   135      9.7   927.0    0.00       0    97.1
 206   23:50   87.0    12    7.0   137      9.9   927.1    0.00       0    97.1
 207    0:00   87.3    11    8.3   149     11.4   927.2    0.00       0    97.0
 207    0:10   87.8    10    8.8   167     13.9   927.1    0.00       0    96.9
 207    0:20   88.1    10    8.6   168     12.0   927.1    0.00       0    96.8
 207    0:30   87.5    10    7.8   153     10.7   927.1    0.00       0    96.7
 207    0:40   86.2    10    6.7   140      9.1   927.1    0.00       0    96.6
 207    0:50   85.8    10    6.6   162      9.0   927.0    0.00       0    96.6
 207    1:00   85.8    10    7.7   163     10.2   927.0    0.00       0    96.5
 207    1:10   86.1    10    7.9   161     11.0   927.0    0.00       0    96.4
 207    1:20   86.1    11    8.3   164     10.8   926.9    0.00       0    96.3
 207    1:30   85.6    11    7.7   161     10.7   926.9    0.00       0    96.2
 207    1:40   85.6    11    8.5   152     11.2   926.9    0.00       0    96.1
 207    1:50   85.4    12    8.3   154     11.5   926.9    0.00       0    96.0
 207    2:00   85.3    12    7.9   152     10.6   926.9    0.00       0    96.0
 207    2:10   85.1    12    8.8   152     12.5   926.9    0.00       0    95.9
 207    2:20   85.4    12   10.0   155     15.0   926.8    0.00       0    95.8
 207    2:30   86.1    12   10.4   156     16.2   926.8    0.00       0    95.7
 207    2:40   86.2    12   10.7   159     14.5   926.9    0.00       0    95.6
 207    2:50   85.8    12    9.9   161     13.5   926.9    0.00       0    95.5
 207    3:00   85.8    11    9.6   162     12.9   927.0    0.00       0    95.4
 207    3:10   85.4    11   11.3   163     15.3   927.1    0.00       0    95.3
 207    3:20   85.1    11   11.7   164     15.9   927.2    0.00       0    95.3
 207    3:30   84.7    11   11.4   161     17.5   927.2    0.00       0    95.2
 207    3:40   83.9    11   10.1   154     15.0   927.4    0.00       0    95.1
 207    3:50   83.8    13   10.3   159     14.6   927.5    0.00       0    95.0
 207    4:00   83.9    15    8.6   175     12.6   927.6    0.00       0    94.9
 207    4:10   83.2    18    6.9   168      9.6   927.7    0.00       0    94.9
 207    4:20   82.5    16    6.3   154      8.6   927.7    0.00       0    94.8
 207    4:30   81.9    13    5.4   143      8.6   927.8    0.00       0    94.7
 207    4:40   82.0    13    7.4   144     11.5   927.8    0.00       0    94.7
 207    4:50   81.6    13    7.7   145     11.5   927.8    0.00       0    94.6
 207    5:00   80.5    14    6.9   116     10.8   928.0    0.00       5    94.5
 207    5:10   80.5    16    5.1   102      7.7   928.2    0.00      16    94.5
 207    5:20   80.9    18    5.1   110      7.7   928.4    0.00      32    94.4
 207    5:30   81.6    16    4.7   142      7.2   928.5    0.00      36    94.3
 207    5:40   82.2    15    3.7   150      5.4   928.6    0.00      79    94.2
 207    5:50   83.2    14    3.9   155      5.7   928.8    0.00     134    94.1
 207    6:00   84.3    14    4.2   129      5.6   929.0    0.00     159    94.0
 207    6:10   84.5    14    4.5   109      6.4   929.2    0.00      76    93.9
 207    6:20   84.4    14    4.5   105      6.7   929.4    0.00     165    93.8
 207    6:30   85.8    14    5.2   119      7.0   929.5    0.00     238    93.6
 207    6:40   86.4    15    5.5   124      7.7   929.7    0.00     252    93.5
 207    6:50   87.2    16    5.2   132      7.2   929.7    0.00     281    93.5
 207    7:00   87.7    17    5.1   135      7.9   929.9    0.00     348    93.4
 207    7:10   88.2    17    5.2   152      8.6   930.0    0.00     399    93.3
 207    7:20   89.1    17    7.5   165     11.1   930.1    0.00     427    93.2
 207    7:30   89.9    16    9.1   168     14.8   930.2    0.00     456    93.2
 207    7:40   90.6    15   10.8   169     16.1   930.3    0.00     466    93.1
 207    7:50   91.3    15   11.9   175     17.5   930.4    0.00     460    93.1
 207    8:00   91.2    14   13.2   177     18.6   930.5    0.00     467    93.1
 207    8:10   91.3    14   13.1   175     17.9   930.6    0.00     512    93.0
 207    8:20   91.8    14   12.1   178     18.1   930.7    0.00     544    93.0
 207    8:30   92.2    14   12.9   182     17.6   930.6    0.00     578    92.9
 207    8:40   92.6    14   13.4   178     18.0   930.7    0.00     654    92.9
 207    8:50   93.3    13   14.0   175     19.4   930.8    0.00     646    92.9
 207    9:00   93.7    13   13.6   180     19.4   930.8    0.00     645    92.9
 207    9:10   93.7    13   12.6   183     18.9   930.8    0.00     701    92.9
 207    9:20   94.4    13   13.2   176     19.1   930.9    0.00     764    92.9
 207    9:30   94.8    13   12.8   175     18.0   930.9    0.00     789    92.9

Return to Amargosa Valley, Nevada graphs page.


Western Regional Climate Center,wrcc@dri.edu